Time;durP1;ratioP1;P1;durP2;ratioP2;P2;SDS_P1;SDS_P2;PMS_P1;PMS_P2;Temp;Humidity;BMP_temperature;BMP_pressure;BME280_temperature;BME280_humidity;BME280_pressure;Samples;Min_cycle;Max_cycle;Signal;HPM_P1;HPM_P2
2021/12/12 00:01:42;;;;;;;65.88;30.95;;;;;;;;;;5094538;28;20047;-81
2021/12/12 00:04:13;;;;;;;76.47;31.65;;;;;;;;;;5110650;28;20044;-76
2021/12/12 00:06:59;;;;;;;70.60;32.20;;;;;;;;;;5110886;28;20047;-76
2021/12/12 00:09:52;;;;;;;73.00;32.38;;;;;;;;;;5110333;28;20108;-80
2021/12/12 00:12:22;;;;;;;72.75;31.25;;;;;;;;;;5089118;28;20047;-81
2021/12/12 00:14:48;;;;;;;80.40;31.20;;;;;;;;;;5094176;28;20487;-80
2021/12/12 00:17:15;;;;;;;69.30;28.70;;;;;;;;;;5111462;28;20395;-81
2021/12/12 00:19:43;;;;;;;69.72;30.15;;;;;;;;;;5110798;28;20497;-81
2021/12/12 00:22:11;;;;;;;69.60;29.90;;;;;;;;;;5110358;28;20403;-81
2021/12/12 00:24:38;;;;;;;70.75;30.33;;;;;;;;;;5110944;28;20100;-76
2021/12/12 00:27:04;;;;;;;64.00;29.40;;;;;;;;;;5110333;28;20510;-76
2021/12/12 00:29:31;;;;;;;66.20;29.63;;;;;;;;;;5110152;28;20104;-76
2021/12/12 00:31:59;;;;;;;65.35;28.83;;;;;;;;;;5092605;28;20044;-79
2021/12/12 00:34:30;;;;;;;71.15;28.55;;;;;;;;;;5110549;28;20122;-81
2021/12/12 00:36:56;;;;;;;65.53;27.80;;;;;;;;;;5110454;28;20118;-80
2021/12/12 00:39:26;;;;;;;63.28;27.92;;;;;;;;;;5110937;28;20050;-81
2021/12/12 00:42:04;;;;;;;69.10;29.20;;;;;;;;;;5110811;28;20039;-81
2021/12/12 00:44:31;;;;;;;60.90;27.40;;;;;;;;;;5111027;28;20043;-80
2021/12/12 00:46:58;;;;;;;60.22;27.13;;;;;;;;;;5110347;28;20135;-81
2021/12/12 00:49:24;;;;;;;59.75;26.92;;;;;;;;;;5110299;28;20043;-77
2021/12/12 00:51:51;;;;;;;54.60;25.55;;;;;;;;;;5109916;28;20123;-76
2021/12/12 00:54:18;;;;;;;59.33;25.85;;;;;;;;;;5109938;28;20043;-77
2021/12/12 00:56:45;;;;;;;57.83;25.00;;;;;;;;;;5093015;28;20119;-77
2021/12/12 00:59:11;;;;;;;56.28;25.50;;;;;;;;;;5109924;28;20399;-81
2021/12/12 01:01:42;;;;;;;58.83;26.05;;;;;;;;;;5109879;28;20079;-81
2021/12/12 01:04:13;;;;;;;69.53;25.58;;;;;;;;;;5092769;28;20518;-75
2021/12/12 01:06:39;;;;;;;61.92;25.65;;;;;;;;;;5109859;28;20513;-76
2021/12/12 01:09:08;;;;;;;50.53;22.95;;;;;;;;;;5109698;28;20042;-76
2021/12/12 01:11:39;;;;;;;58.97;25.40;;;;;;;;;;5109646;28;20423;-81
2021/12/12 01:14:07;;;;;;;59.15;25.52;;;;;;;;;;5109449;28;20055;-81
2021/12/12 01:16:36;;;;;;;58.33;25.27;;;;;;;;;;5110029;28;20042;-80
2021/12/12 01:19:07;;;;;;;49.65;21.88;;;;;;;;;;5109696;28;20062;-77
2021/12/12 01:21:35;;;;;;;61.55;25.50;;;;;;;;;;5108853;28;20063;-76
2021/12/12 01:24:05;;;;;;;66.22;26.00;;;;;;;;;;5072040;28;20476;-77
2021/12/12 01:26:32;;;;;;;56.63;23.85;;;;;;;;;;5088912;28;20552;-76
2021/12/12 01:29:00;;;;;;;62.22;24.90;;;;;;;;;;5088835;28;20062;-76
2021/12/12 01:31:30;;;;;;;68.68;25.92;;;;;;;;;;5089006;28;20115;-82
2021/12/12 01:34:00;;;;;;;56.58;25.58;;;;;;;;;;5072230;28;20055;-81
2021/12/12 01:36:43;;;;;;;58.95;26.00;;;;;;;;;;5089360;28;20440;-81
2021/12/12 01:39:10;;;;;;;66.68;26.67;;;;;;;;;;5089172;28;20530;-82
2021/12/12 01:41:39;;;;;;;65.45;26.33;;;;;;;;;;5072391;28;20499;-81
2021/12/12 01:44:29;;;;;;;59.05;25.73;;;;;;;;;;5087967;28;20048;-81
2021/12/12 01:47:04;;;;;;;71.28;26.00;;;;;;;;;;5115182;27;20078;-82
2021/12/12 01:49:31;;;;;;;60.70;23.83;;;;;;;;;;5088556;28;20063;-76
2021/12/12 01:51:58;;;;;;;64.30;25.67;;;;;;;;;;5088297;28;20055;-82
2021/12/12 01:54:28;;;;;;;61.08;25.27;;;;;;;;;;5089002;28;20040;-82
2021/12/12 01:56:59;;;;;;;57.75;25.10;;;;;;;;;;5089946;28;20117;-82
2021/12/12 01:59:27;;;;;;;65.32;25.55;;;;;;;;;;5088813;28;20050;-76
2021/12/12 02:01:56;;;;;;;66.57;26.23;;;;;;;;;;5088417;28;20089;-82
2021/12/12 02:04:27;;;;;;;62.53;25.13;;;;;;;;;;5088791;28;20048;-82
2021/12/12 02:06:55;;;;;;;57.58;23.65;;;;;;;;;;5089190;28;20044;-82
2021/12/12 02:09:22;;;;;;;67.35;24.77;;;;;;;;;;5088614;28;20044;-76
2021/12/12 02:11:49;;;;;;;58.00;23.02;;;;;;;;;;5088272;28;20055;-82
2021/12/12 02:14:16;;;;;;;67.13;25.55;;;;;;;;;;5072258;28;20038;-84
2021/12/12 02:16:46;;;;;;;56.63;23.08;;;;;;;;;;5072326;28;20656;-82
2021/12/12 02:19:14;;;;;;;61.83;25.73;;;;;;;;;;5088997;28;20327;-82
2021/12/12 02:22:06;;;;;;;55.20;24.40;;;;;;;;;;5088704;28;20104;-82
2021/12/12 02:35:24;;;;;;;64.85;23.25;;;;;;;;;;5108960;28;20039;-83
2021/12/12 02:37:52;;;;;;;57.70;22.77;;;;;;;;;;5109361;28;20110;-82
2021/12/12 02:40:24;;;;;;;59.95;22.83;;;;;;;;;;5110138;28;20035;-82
2021/12/12 02:42:50;;;;;;;50.67;20.98;;;;;;;;;;5109358;28;20123;-82
2021/12/12 02:45:18;;;;;;;61.58;22.35;;;;;;;;;;5108841;28;20051;-76
2021/12/12 02:47:45;;;;;;;54.53;22.02;;;;;;;;;;5109433;28;20066;-83
2021/12/12 02:50:14;;;;;;;57.38;22.63;;;;;;;;;;5092468;28;20479;-83
2021/12/12 02:52:44;;;;;;;61.10;22.52;;;;;;;;;;5109339;28;20046;-83
2021/12/12 02:55:16;;;;;;;61.38;22.23;;;;;;;;;;5112963;28;20044;-83
2021/12/12 02:57:42;;;;;;;59.42;22.35;;;;;;;;;;5113002;28;20040;-84
2021/12/12 03:00:10;;;;;;;54.78;21.05;;;;;;;;;;5096343;28;20051;-83
2021/12/12 03:02:44;;;;;;;63.70;22.92;;;;;;;;;;5109418;28;20521;-84
2021/12/12 03:05:11;;;;;;;60.65;21.73;;;;;;;;;;5096439;28;20453;-83
2021/12/12 03:07:38;;;;;;;58.38;20.80;;;;;;;;;;5111977;28;20100;-84
2021/12/12 03:10:06;;;;;;;50.85;20.30;;;;;;;;;;5112771;28;20043;-84
2021/12/12 03:12:34;;;;;;;57.58;22.20;;;;;;;;;;5113308;28;20075;-83
2021/12/12 03:15:04;;;;;;;56.45;20.40;;;;;;;;;;5113234;28;20035;-83
2021/12/12 03:17:30;;;;;;;46.78;19.48;;;;;;;;;;5114168;28;20053;-84
2021/12/12 03:19:58;;;;;;;54.40;20.65;;;;;;;;;;5096196;28;20039;-84
2021/12/12 03:22:26;;;;;;;53.45;21.40;;;;;;;;;;5095983;28;20062;-85
2021/12/12 03:24:52;;;;;;;43.85;20.10;;;;;;;;;;5112919;28;20126;-83
2021/12/12 03:27:20;;;;;;;52.40;22.33;;;;;;;;;;5112826;28;20055;-83
2021/12/12 03:29:47;;;;;;;57.13;20.85;;;;;;;;;;5096248;28;20550;-83
2021/12/12 03:32:16;;;;;;;53.20;20.42;;;;;;;;;;5113650;28;20498;-84
2021/12/12 03:34:46;;;;;;;45.10;19.55;;;;;;;;;;5095738;28;20035;-84
2021/12/12 03:37:16;;;;;;;47.97;20.83;;;;;;;;;;5096092;28;20450;-83
2021/12/12 03:39:44;;;;;;;46.78;22.05;;;;;;;;;;5095391;28;20412;-83
2021/12/12 03:42:16;;;;;;;48.30;19.65;;;;;;;;;;5111758;28;20040;-84
2021/12/12 03:44:42;;;;;;;46.22;20.33;;;;;;;;;;5112496;28;20382;-83
2021/12/12 03:47:12;;;;;;;45.55;20.52;;;;;;;;;;5113902;28;20501;-84
2021/12/12 03:49:38;;;;;;;46.67;20.88;;;;;;;;;;5111590;28;20162;-77
2021/12/12 03:52:06;;;;;;;44.60;20.85;;;;;;;;;;5111023;28;20044;-77
2021/12/12 03:54:32;;;;;;;49.40;20.92;;;;;;;;;;5111031;28;20072;-77
2021/12/12 03:56:58;;;;;;;47.03;21.90;;;;;;;;;;5111286;28;20039;-76
2021/12/12 03:59:25;;;;;;;43.17;19.90;;;;;;;;;;5111953;28;20044;-83
2021/12/12 04:01:53;;;;;;;45.20;20.25;;;;;;;;;;5113932;28;20187;-82
2021/12/12 04:04:27;;;;;;;51.40;20.45;;;;;;;;;;5111033;28;20048;-77
2021/12/12 04:06:55;;;;;;;39.72;18.27;;;;;;;;;;5111822;28;20075;-75
2021/12/12 04:09:21;;;;;;;41.40;19.33;;;;;;;;;;5110868;28;20043;-77
2021/12/12 04:11:49;;;;;;;47.17;20.02;;;;;;;;;;5111896;28;20487;-76
2021/12/12 04:14:16;;;;;;;41.10;19.73;;;;;;;;;;5093547;28;20139;-76
2021/12/12 04:16:45;;;;;;;41.47;19.30;;;;;;;;;;5095819;28;20058;-83
2021/12/12 04:19:12;;;;;;;38.22;17.60;;;;;;;;;;5111973;28;20317;-75
2021/12/12 04:21:39;;;;;;;37.47;17.58;;;;;;;;;;5110318;28;20059;-76
2021/12/12 04:24:06;;;;;;;35.90;18.15;;;;;;;;;;5111546;28;20050;-77
2021/12/12 04:26:37;;;;;;;34.75;16.50;;;;;;;;;;5110520;28;20044;-76
2021/12/12 04:29:16;;;;;;;26.52;14.15;;;;;;;;;;5110101;28;20130;-77
2021/12/12 04:31:44;;;;;;;30.55;16.13;;;;;;;;;;5090025;28;20036;-77
2021/12/12 04:34:10;;;;;;;32.03;15.48;;;;;;;;;;5073290;28;20082;-82
2021/12/12 04:36:42;;;;;;;30.77;15.05;;;;;;;;;;5091978;28;20040;-84
2021/12/12 04:39:15;;;;;;;28.95;15.45;;;;;;;;;;5074941;28;20044;-84
2021/12/12 04:41:43;;;;;;;23.77;13.35;;;;;;;;;;5073945;28;20039;-77
2021/12/12 04:44:09;;;;;;;28.55;14.77;;;;;;;;;;5090007;28;20396;-84
2021/12/12 04:52:18;;;;;;;28.67;14.45;;;;;;;;;;5091700;28;20040;-84
2021/12/12 04:54:53;;;;;;;25.85;13.00;;;;;;;;;;5090742;28;20549;-77
2021/12/12 04:57:32;;;;;;;27.65;15.52;;;;;;;;;;5090477;28;20093;-83
2021/12/12 05:00:01;;;;;;;24.55;14.45;;;;;;;;;;5090944;28;20579;-84
2021/12/12 05:02:34;;;;;;;27.05;14.32;;;;;;;;;;5101528;28;20035;-77
2021/12/12 05:05:07;;;;;;;27.55;14.57;;;;;;;;;;5094528;28;20039;-82
2021/12/12 05:07:37;;;;;;;24.88;13.85;;;;;;;;;;5093033;28;20039;-76
2021/12/12 05:10:06;;;;;;;26.80;14.88;;;;;;;;;;5110520;28;20394;-82
2021/12/12 05:12:35;;;;;;;24.38;13.85;;;;;;;;;;5093584;28;20151;-83
2021/12/12 05:15:04;;;;;;;29.45;15.75;;;;;;;;;;5109976;28;20123;-78
2021/12/12 05:17:41;;;;;;;29.98;14.68;;;;;;;;;;5091542;28;20082;-77
2021/12/12 05:20:10;;;;;;;28.67;15.85;;;;;;;;;;5092029;28;20044;-81
2021/12/12 05:22:38;;;;;;;27.38;15.65;;;;;;;;;;5110624;28;20503;-82
2021/12/12 05:25:06;;;;;;;30.63;15.27;;;;;;;;;;5111864;28;20448;-85
2021/12/12 05:27:33;;;;;;;29.92;15.85;;;;;;;;;;5111667;28;20042;-78
2021/12/12 05:30:01;;;;;;;32.15;16.55;;;;;;;;;;5108703;28;20387;-77
2021/12/12 05:32:29;;;;;;;32.13;15.63;;;;;;;;;;5110078;28;20123;-82
2021/12/12 05:34:55;;;;;;;39.10;17.40;;;;;;;;;;5111256;28;20039;-82
2021/12/12 05:37:22;;;;;;;31.00;16.25;;;;;;;;;;5110179;28;20123;-83
2021/12/12 05:39:49;;;;;;;32.95;17.00;;;;;;;;;;5110096;28;20043;-82
2021/12/12 05:42:16;;;;;;;32.72;16.48;;;;;;;;;;5109594;28;20114;-82
2021/12/12 05:44:43;;;;;;;35.85;18.08;;;;;;;;;;5110356;28;20052;-82
2021/12/12 05:47:09;;;;;;;38.17;17.90;;;;;;;;;;5111125;28;20044;-83
2021/12/12 05:49:37;;;;;;;37.83;17.30;;;;;;;;;;5110571;28;20040;-76
2021/12/12 05:52:06;;;;;;;41.03;18.05;;;;;;;;;;5108785;28;20483;-77
2021/12/12 05:54:32;;;;;;;41.85;18.83;;;;;;;;;;5108763;28;20504;-77
2021/12/12 05:57:00;;;;;;;42.22;17.92;;;;;;;;;;5092699;28;20040;-83
2021/12/12 05:59:27;;;;;;;40.55;18.85;;;;;;;;;;5127707;27;20036;-83
2021/12/12 06:01:53;;;;;;;39.83;18.75;;;;;;;;;;5110571;28;20044;-84
2021/12/12 06:04:19;;;;;;;39.70;18.52;;;;;;;;;;5109740;28;20050;-83
2021/12/12 06:06:46;;;;;;;43.92;20.58;;;;;;;;;;5109973;28;20035;-83
2021/12/12 06:09:13;;;;;;;44.75;20.13;;;;;;;;;;5092989;28;20446;-78
2021/12/12 06:11:41;;;;;;;47.17;20.80;;;;;;;;;;5108743;28;20452;-83
2021/12/12 06:14:08;;;;;;;47.92;20.70;;;;;;;;;;5109505;28;20127;-82
2021/12/12 06:16:35;;;;;;;48.25;20.15;;;;;;;;;;5111132;28;20427;-82
2021/12/12 06:19:12;;;;;;;48.95;20.98;;;;;;;;;;5109890;28;20487;-83
2021/12/12 06:21:38;;;;;;;49.88;22.05;;;;;;;;;;5108493;28;20086;-77
2021/12/12 06:24:05;;;;;;;51.22;21.33;;;;;;;;;;5091131;28;20126;-77
2021/12/12 06:26:32;;;;;;;47.00;20.75;;;;;;;;;;5108368;28;20043;-77
2021/12/12 06:28:58;;;;;;;50.90;20.75;;;;;;;;;;5109063;28;20046;-78
2021/12/12 06:31:25;;;;;;;46.25;19.95;;;;;;;;;;5095448;28;20043;-78
2021/12/12 06:33:51;;;;;;;54.25;21.17;;;;;;;;;;5112725;28;20479;-77
2021/12/12 06:36:17;;;;;;;52.75;22.08;;;;;;;;;;5095542;28;20058;-77
2021/12/12 06:38:46;;;;;;;52.85;21.13;;;;;;;;;;5112557;28;20046;-77
2021/12/12 06:41:12;;;;;;;56.17;22.13;;;;;;;;;;5112359;28;20390;-77
2021/12/12 06:43:38;;;;;;;58.38;22.33;;;;;;;;;;5114399;28;20545;-83
2021/12/12 06:46:05;;;;;;;53.75;21.50;;;;;;;;;;5096943;28;20391;-83
2021/12/12 06:48:31;;;;;;;54.35;21.00;;;;;;;;;;5114338;28;20505;-83
2021/12/12 06:50:59;;;;;;;53.83;20.88;;;;;;;;;;5113961;28;20059;-83
2021/12/12 06:53:27;;;;;;;60.45;22.23;;;;;;;;;;5113970;28;20036;-84
2021/12/12 06:55:54;;;;;;;52.35;20.48;;;;;;;;;;5094948;28;20089;-77
2021/12/12 06:58:21;;;;;;;52.75;20.83;;;;;;;;;;5095203;28;20382;-76
2021/12/12 07:00:49;;;;;;;56.97;20.58;;;;;;;;;;5112290;28;20031;-77
2021/12/12 07:03:19;;;;;;;56.67;21.80;;;;;;;;;;5111433;28;20035;-77
2021/12/12 07:05:46;;;;;;;52.72;19.60;;;;;;;;;;5111759;28;20039;-77
2021/12/12 07:08:12;;;;;;;51.63;19.80;;;;;;;;;;5094217;28;20126;-77
2021/12/12 07:10:39;;;;;;;59.47;22.30;;;;;;;;;;5114326;28;20070;-84
2021/12/12 07:13:06;;;;;;;57.85;22.83;;;;;;;;;;5112087;28;20073;-77
2021/12/12 07:15:37;;;;;;;60.85;22.25;;;;;;;;;;5113113;28;20036;-77
2021/12/12 07:18:08;;;;;;;60.90;21.55;;;;;;;;;;5111419;28;20085;-77
2021/12/12 07:20:35;;;;;;;63.80;22.45;;;;;;;;;;5113209;28;20042;-84
2021/12/12 07:23:04;;;;;;;70.72;23.20;;;;;;;;;;5114138;28;20498;-84
2021/12/12 07:25:30;;;;;;;67.97;22.73;;;;;;;;;;5112743;28;20451;-77
2021/12/12 07:27:56;;;;;;;66.28;22.20;;;;;;;;;;5113332;28;20096;-84
2021/12/12 07:30:22;;;;;;;71.60;22.83;;;;;;;;;;5112740;28;20550;-77
2021/12/12 07:32:48;;;;;;;76.07;23.52;;;;;;;;;;5094100;28;20044;-77
2021/12/12 07:35:15;;;;;;;73.63;23.08;;;;;;;;;;5112530;28;20039;-78
2021/12/12 07:37:43;;;;;;;78.22;24.75;;;;;;;;;;5111294;28;20218;-77
2021/12/12 07:40:10;;;;;;;81.95;26.30;;;;;;;;;;5093542;28;20046;-77
2021/12/12 07:42:36;;;;;;;88.63;24.73;;;;;;;;;;5110754;28;20253;-77
2021/12/12 07:45:04;;;;;;;79.93;24.52;;;;;;;;;;5127822;27;20050;-77
2021/12/12 07:47:30;;;;;;;78.70;25.40;;;;;;;;;;5111963;28;20104;-83
2021/12/12 07:49:56;;;;;;;80.50;24.00;;;;;;;;;;5095740;28;20043;-84
2021/12/12 07:52:24;;;;;;;82.43;25.30;;;;;;;;;;5113524;28;20043;-78
2021/12/12 07:54:51;;;;;;;80.75;24.15;;;;;;;;;;5112808;28;20035;-84
2021/12/12 07:57:17;;;;;;;80.82;23.48;;;;;;;;;;5130981;27;20046;-84
2021/12/12 07:59:44;;;;;;;80.03;23.80;;;;;;;;;;5112763;28;20035;-84
2021/12/12 08:02:11;;;;;;;80.63;23.52;;;;;;;;;;5095805;28;20105;-84
2021/12/12 08:04:38;;;;;;;74.95;23.75;;;;;;;;;;5113028;28;20065;-84
2021/12/12 08:07:07;;;;;;;87.18;25.45;;;;;;;;;;5112823;28;20086;-84
2021/12/12 08:09:34;;;;;;;84.47;24.52;;;;;;;;;;5113685;28;20047;-83
2021/12/12 08:12:01;;;;;;;91.05;24.67;;;;;;;;;;5129371;27;20495;-83
2021/12/12 08:14:28;;;;;;;85.47;24.60;;;;;;;;;;5094963;28;20489;-77
2021/12/12 08:16:55;;;;;;;87.05;24.98;;;;;;;;;;5094342;28;20078;-76
2021/12/12 08:19:23;;;;;;;93.18;26.27;;;;;;;;;;5127954;27;20394;-83
2021/12/12 08:21:50;;;;;;;93.00;26.05;;;;;;;;;;5112604;28;20090;-83
2021/12/12 08:24:17;;;;;;;100.80;26.27;;;;;;;;;;5112890;28;20048;-83
2021/12/12 08:26:44;;;;;;;98.35;26.30;;;;;;;;;;5110596;28;20079;-78
2021/12/12 08:29:11;;;;;;;88.47;24.98;;;;;;;;;;5110818;28;20047;-77
2021/12/12 08:31:37;;;;;;;96.50;25.70;;;;;;;;;;5112380;28;20126;-83
2021/12/12 08:34:08;;;;;;;103.40;26.27;;;;;;;;;;5110507;28;20040;-78
2021/12/12 08:36:36;;;;;;;102.90;26.83;;;;;;;;;;5111265;28;20119;-84
2021/12/12 08:39:04;;;;;;;101.78;25.77;;;;;;;;;;5095347;28;20039;-83
2021/12/12 08:41:30;;;;;;;104.72;25.13;;;;;;;;;;5111952;28;20390;-84
2021/12/12 08:43:57;;;;;;;110.43;27.83;;;;;;;;;;5112342;28;20093;-84
2021/12/12 08:46:24;;;;;;;115.07;28.48;;;;;;;;;;5112275;28;20429;-83
2021/12/12 08:48:51;;;;;;;123.70;29.65;;;;;;;;;;5110299;28;20039;-78
2021/12/12 08:51:37;;;;;;;108.22;27.77;;;;;;;;;;5109892;28;20069;-77
2021/12/12 08:54:13;;;;;;;123.00;28.85;;;;;;;;;;5109742;28;20429;-77
2021/12/12 08:56:43;;;;;;;113.05;27.52;;;;;;;;;;5110194;28;20075;-77
2021/12/12 08:59:11;;;;;;;115.63;27.88;;;;;;;;;;5092666;28;20031;-78
2021/12/12 09:01:38;;;;;;;125.60;30.15;;;;;;;;;;5109724;28;20035;-77
2021/12/12 09:04:05;;;;;;;124.40;29.58;;;;;;;;;;5109272;28;20062;-78
2021/12/12 09:06:45;;;;;;;122.90;29.10;;;;;;;;;;5111380;28;20070;-83
2021/12/12 09:09:14;;;;;;;125.47;29.15;;;;;;;;;;5110604;28;20044;-83
2021/12/12 09:11:47;;;;;;;128.52;29.20;;;;;;;;;;5111334;28;20391;-83
2021/12/12 09:14:16;;;;;;;121.63;29.00;;;;;;;;;;5111112;28;20039;-83
2021/12/12 09:16:49;;;;;;;125.93;28.83;;;;;;;;;;5093984;28;20032;-83
2021/12/12 09:19:17;;;;;;;113.47;27.80;;;;;;;;;;5110343;28;20042;-83
2021/12/12 09:21:51;;;;;;;112.03;28.23;;;;;;;;;;5110581;28;20058;-82
2021/12/12 09:24:43;;;;;;;122.15;27.30;;;;;;;;;;5110568;28;20104;-83
2021/12/12 09:27:11;;;;;;;106.25;26.92;;;;;;;;;;5110342;28;20040;-83
2021/12/12 09:29:43;;;;;;;108.85;26.30;;;;;;;;;;5110012;28;20043;-83
2021/12/12 09:32:11;;;;;;;105.20;26.08;;;;;;;;;;5109715;28;20053;-81
2021/12/12 09:34:41;;;;;;;112.05;27.42;;;;;;;;;;5110510;28;20043;-83
2021/12/12 09:37:42;;;;;;;107.60;27.45;;;;;;;;;;5110055;28;20115;-83
2021/12/12 09:40:25;;;;;;;100.65;27.25;;;;;;;;;;5010538;28;20051;-78
2021/12/12 09:42:58;;;;;;;112.25;27.73;;;;;;;;;;5103430;28;20047;-78
2021/12/12 09:45:37;;;;;;;108.10;26.58;;;;;;;;;;5108494;28;20043;-78
2021/12/12 09:51:14;;;;;;;98.88;24.27;;;;;;;;;;5108719;28;20598;-77
2021/12/12 09:51:19;;;;;;;101.07;26.02;;;;;;;;;;5108635;28;20047;-78
2021/12/12 09:53:52;;;;;;;111.70;26.13;;;;;;;;;;5109419;28;20402;-78
2021/12/12 09:56:18;;;;;;;103.78;26.38;;;;;;;;;;5108674;28;20104;-78
2021/12/12 09:58:55;;;;;;;113.60;27.48;;;;;;;;;;5108872;28;20075;-78
2021/12/12 10:01:28;;;;;;;96.53;25.42;;;;;;;;;;5108305;28;20047;-77
2021/12/12 10:03:57;;;;;;;108.90;26.95;;;;;;;;;;5108556;28;20071;-78
2021/12/12 10:06:45;;;;;;;95.15;24.20;;;;;;;;;;5091031;28;20046;-78
2021/12/12 10:09:21;;;;;;;91.82;23.65;;;;;;;;;;5108131;28;20044;-77
2021/12/12 10:11:50;;;;;;;99.47;25.23;;;;;;;;;;5091995;28;20096;-78
2021/12/12 10:14:39;;;;;;;92.35;24.13;;;;;;;;;;5108481;28;20043;-78
2021/12/12 10:17:18;;;;;;;97.63;24.40;;;;;;;;;;5108496;28;20124;-77
2021/12/12 10:19:48;;;;;;;78.85;22.60;;;;;;;;;;5110011;28;20047;-77
2021/12/12 10:22:33;;;;;;;86.20;24.15;;;;;;;;;;5108386;28;20055;-77
2021/12/12 10:25:02;;;;;;;84.28;23.42;;;;;;;;;;5109012;28;20444;-78
2021/12/12 10:27:40;;;;;;;85.47;23.00;;;;;;;;;;5108560;28;20079;-75
2021/12/12 10:30:11;;;;;;;68.70;20.88;;;;;;;;;;5108610;28;20551;-77
2021/12/12 10:32:45;;;;;;;70.55;21.90;;;;;;;;;;5108644;28;20047;-83
2021/12/12 10:35:14;;;;;;;69.47;20.92;;;;;;;;;;5109188;28;20166;-77
2021/12/12 10:37:46;;;;;;;70.00;20.27;;;;;;;;;;5092921;28;20482;-83
2021/12/12 10:40:19;;;;;;;69.32;20.23;;;;;;;;;;5111585;28;20517;-83
2021/12/12 10:42:47;;;;;;;61.90;19.85;;;;;;;;;;5109292;28;20100;-77
2021/12/12 10:45:33;;;;;;;68.60;19.85;;;;;;;;;;5109538;28;20612;-77
2021/12/12 10:47:59;;;;;;;59.40;18.70;;;;;;;;;;5108659;28;20071;-77
2021/12/12 10:50:44;;;;;;;60.88;19.35;;;;;;;;;;5108002;28;20047;-75
2021/12/12 10:53:34;;;;;;;63.70;19.95;;;;;;;;;;5109154;28;20043;-77
2021/12/12 10:56:26;;;;;;;63.95;20.05;;;;;;;;;;5109674;28;20039;-83
2021/12/12 10:58:54;;;;;;;64.40;20.35;;;;;;;;;;5088889;28;20059;-84
2021/12/12 11:01:25;;;;;;;59.78;18.75;;;;;;;;;;5091895;28;20039;-77
2021/12/12 11:03:59;;;;;;;59.70;19.00;;;;;;;;;;5108189;28;20067;-77
2021/12/12 11:06:32;;;;;;;59.13;20.08;;;;;;;;;;5107520;28;20036;-77
2021/12/12 11:09:04;;;;;;;62.92;19.48;;;;;;;;;;5107984;28;20035;-77
2021/12/12 11:11:35;;;;;;;57.72;19.13;;;;;;;;;;5090940;28;20508;-77
2021/12/12 11:14:15;;;;;;;64.88;20.50;;;;;;;;;;5108152;28;20127;-77
2021/12/12 11:16:50;;;;;;;59.33;20.65;;;;;;;;;;5092647;28;20035;-77
2021/12/12 11:19:20;;;;;;;61.03;18.83;;;;;;;;;;5111919;28;20506;-77
2021/12/12 11:21:57;;;;;;;63.45;21.23;;;;;;;;;;5111692;28;20293;-77
2021/12/12 11:24:38;;;;;;;61.70;19.15;;;;;;;;;;5111437;28;20051;-77
2021/12/12 11:27:10;;;;;;;61.80;19.58;;;;;;;;;;5111329;28;20043;-77
2021/12/12 11:29:56;;;;;;;55.63;18.65;;;;;;;;;;5111437;28;20372;-77
2021/12/12 11:32:27;;;;;;;55.15;18.52;;;;;;;;;;5110769;28;20134;-77
2021/12/12 11:34:55;;;;;;;54.33;18.98;;;;;;;;;;5094545;28;20045;-77
2021/12/12 11:37:40;;;;;;;54.33;18.55;;;;;;;;;;5111296;28;20047;-76
2021/12/12 11:40:13;;;;;;;49.10;16.40;;;;;;;;;;5111021;28;20078;-77
2021/12/12 11:42:40;;;;;;;54.17;17.52;;;;;;;;;;5111350;28;20564;-76
2021/12/12 11:45:10;;;;;;;44.53;16.48;;;;;;;;;;5110892;28;20047;-77
2021/12/12 11:47:56;;;;;;;41.42;14.80;;;;;;;;;;5111083;28;20440;-76
2021/12/12 11:50:22;;;;;;;39.72;15.25;;;;;;;;;;5043393;28;20094;-77
2021/12/12 11:52:51;;;;;;;46.25;14.90;;;;;;;;;;5110911;28;20047;-76
2021/12/12 11:55:25;;;;;;;39.10;14.10;;;;;;;;;;5111183;28;20504;-77
2021/12/12 11:58:00;;;;;;;34.13;13.30;;;;;;;;;;5094013;28;20031;-77
2021/12/12 12:00:29;;;;;;;32.08;13.18;;;;;;;;;;5110717;28;20040;-77
2021/12/12 12:02:56;;;;;;;33.95;12.93;;;;;;;;;;5111462;28;20502;-77
2021/12/12 12:05:25;;;;;;;32.03;13.20;;;;;;;;;;5111086;28;20424;-76
2021/12/12 12:08:03;;;;;;;33.13;12.52;;;;;;;;;;5093495;28;20043;-76
2021/12/12 12:10:48;;;;;;;36.53;13.70;;;;;;;;;;5110039;28;20039;-76
2021/12/12 12:13:33;;;;;;;36.80;13.95;;;;;;;;;;5110199;28;20119;-76
2021/12/12 12:16:19;;;;;;;34.65;12.93;;;;;;;;;;5112218;28;20035;-77
2021/12/12 12:18:51;;;;;;;35.15;13.52;;;;;;;;;;5110465;28;20383;-76
2021/12/12 12:21:33;;;;;;;35.60;12.95;;;;;;;;;;5109766;28;20050;-77
2021/12/12 12:26:51;;;;;;;36.78;13.85;;;;;;;;;;5109412;28;20051;-76
2021/12/12 12:29:33;;;;;;;38.58;13.88;;;;;;;;;;5111301;28;20368;-84
2021/12/12 12:32:05;;;;;;;35.85;13.52;;;;;;;;;;5111447;28;20108;-76
2021/12/12 12:34:44;;;;;;;34.20;12.93;;;;;;;;;;5110302;28;20089;-76
2021/12/12 12:37:28;;;;;;;34.78;13.25;;;;;;;;;;5109748;28;20040;-77
2021/12/12 12:40:04;;;;;;;37.88;13.55;;;;;;;;;;5109770;28;20063;-76
2021/12/12 12:42:49;;;;;;;37.67;13.88;;;;;;;;;;5110400;28;20387;-83
2021/12/12 12:45:35;;;;;;;36.88;13.80;;;;;;;;;;5110147;28;20299;-76
2021/12/12 12:48:13;;;;;;;41.85;14.30;;;;;;;;;;5112631;28;20036;-84
2021/12/12 12:50:58;;;;;;;37.58;13.57;;;;;;;;;;5110843;28;20044;-84
2021/12/12 12:53:24;;;;;;;37.67;14.63;;;;;;;;;;5092740;28;20050;-76
2021/12/12 12:56:09;;;;;;;39.00;13.60;;;;;;;;;;5109496;28;20356;-76
2021/12/12 12:58:53;;;;;;;42.92;14.25;;;;;;;;;;5109368;28;20192;-77
2021/12/12 13:01:38;;;;;;;42.00;14.63;;;;;;;;;;5110498;28;20035;-77
2021/12/12 13:04:04;;;;;;;41.95;15.32;;;;;;;;;;5092513;28;20043;-77
2021/12/12 13:06:33;;;;;;;42.33;15.00;;;;;;;;;;5110132;28;20035;-83
2021/12/12 13:09:08;;;;;;;40.17;14.75;;;;;;;;;;5109805;28;20040;-76
2021/12/12 13:11:37;;;;;;;42.88;15.50;;;;;;;;;;5109951;28;20043;-83
2021/12/12 13:14:03;;;;;;;41.67;15.15;;;;;;;;;;5093257;28;20054;-84
2021/12/12 13:16:45;;;;;;;45.55;16.20;;;;;;;;;;5109097;28;20040;-76
2021/12/12 13:19:21;;;;;;;48.22;16.00;;;;;;;;;;5109219;28;20031;-83
2021/12/12 13:22:02;;;;;;;45.05;15.63;;;;;;;;;;5109838;28;20047;-83
2021/12/12 13:24:28;;;;;;;44.42;15.90;;;;;;;;;;5109599;28;20047;-83
2021/12/12 13:27:06;;;;;;;44.53;16.15;;;;;;;;;;5109962;28;20046;-83
2021/12/12 13:29:33;;;;;;;44.55;15.88;;;;;;;;;;5092818;28;20038;-84
2021/12/12 13:31:59;;;;;;;42.17;15.18;;;;;;;;;;5092771;28;20474;-76
2021/12/12 13:34:28;;;;;;;45.78;15.55;;;;;;;;;;5108467;28;20058;-76
2021/12/12 13:37:13;;;;;;;47.30;15.77;;;;;;;;;;5109440;28;20517;-76
2021/12/12 13:39:54;;;;;;;45.78;15.32;;;;;;;;;;5108010;28;20380;-76
2021/12/12 13:42:29;;;;;;;43.90;15.25;;;;;;;;;;5108814;28;20453;-76
2021/12/12 13:45:00;;;;;;;43.42;15.27;;;;;;;;;;5109284;28;20441;-77
2021/12/12 13:47:26;;;;;;;48.03;16.65;;;;;;;;;;5108718;28;20108;-83
2021/12/12 13:50:19;;;;;;;47.13;16.13;;;;;;;;;;5109038;28;20432;-77
2021/12/12 13:52:58;;;;;;;43.47;15.93;;;;;;;;;;5105869;28;20066;-84
2021/12/12 13:55:30;;;;;;;47.08;16.02;;;;;;;;;;5108525;28;20077;-76
2021/12/12 13:58:03;;;;;;;44.67;15.85;;;;;;;;;;5109308;28;20035;-83
2021/12/12 14:00:32;;;;;;;50.70;15.75;;;;;;;;;;5108413;28;20051;-76
2021/12/12 14:03:05;;;;;;;44.58;15.38;;;;;;;;;;5109628;28;20095;-84
2021/12/12 14:05:36;;;;;;;50.38;15.95;;;;;;;;;;5092368;28;20039;-83
2021/12/12 14:08:02;;;;;;;51.67;14.65;;;;;;;;;;5092904;28;20548;-84
2021/12/12 14:10:30;;;;;;;48.25;15.85;;;;;;;;;;5092364;28;20044;-84
2021/12/12 14:13:04;;;;;;;43.92;14.93;;;;;;;;;;5092296;28;20063;-84
2021/12/12 14:15:33;;;;;;;49.38;15.50;;;;;;;;;;5109043;28;20050;-84
2021/12/12 14:18:00;;;;;;;47.15;15.13;;;;;;;;;;5109250;28;20051;-84
2021/12/12 14:20:32;;;;;;;47.72;14.98;;;;;;;;;;5108995;28;20047;-83
2021/12/12 14:22:59;;;;;;;49.72;14.55;;;;;;;;;;5110354;28;20079;-84
2021/12/12 14:25:27;;;;;;;41.38;14.05;;;;;;;;;;5109099;28;20444;-84
2021/12/12 14:27:56;;;;;;;43.30;14.15;;;;;;;;;;5109880;28;20044;-84
2021/12/12 14:30:23;;;;;;;44.92;14.05;;;;;;;;;;5092177;28;20505;-84
2021/12/12 14:32:56;;;;;;;46.85;14.68;;;;;;;;;;5092020;28;20043;-84
2021/12/12 14:35:23;;;;;;;41.97;13.40;;;;;;;;;;5091917;28;20044;-83
2021/12/12 14:37:50;;;;;;;48.30;13.77;;;;;;;;;;5110061;28;20058;-84
2021/12/12 14:40:24;;;;;;;39.70;13.40;;;;;;;;;;5092463;28;20303;-85
2021/12/12 14:42:56;;;;;;;44.38;14.02;;;;;;;;;;5109308;28;20044;-77
2021/12/12 14:45:42;;;;;;;49.80;13.35;;;;;;;;;;5092224;28;20050;-84
2021/12/12 14:48:10;;;;;;;37.88;11.80;;;;;;;;;;5091093;28;20415;-77
2021/12/12 14:50:47;;;;;;;35.88;11.75;;;;;;;;;;5109942;28;20053;-77
2021/12/12 14:53:14;;;;;;;38.80;12.20;;;;;;;;;;5112669;28;20050;-84
2021/12/12 14:55:54;;;;;;;35.97;11.70;;;;;;;;;;5113342;28;20040;-84
2021/12/12 14:58:22;;;;;;;40.85;12.13;;;;;;;;;;5112944;28;20483;-84